Picayune, MS

10:39 CST le 01 février 2015 (GMT -0600)
Hide_A_Way Lake ~OWX | Change Station
CLOSE
Current Station
Stations météorologiques personnelles
Location: Carriere, MS
Altitude: 100 ft
Stations météo à proximité

Alt. 100 ft 30.58 °N, 89.65 °W | Updated 3 seconds ago

Nuageux
Nuageux
65.1 ° F
Paraît 65.1 ° F
N
3.0
Vent Variable Vent de SSO
Gusts 13.0 mph

Aujourd'hui
Haut(e) -- | Bas -- ° F
--% Risque de précip.
Hier
Haut(e) -- | Bas -- ° F
Precip. -- pouce
6:50 AM 5:34 PM
Lune gibbeuse croissante, 95% visible
Pression 30.02 pouce
Visibilité 10.0 Miles terrestres
Nuages Peu 800 ft
Nuages épars 6500 ft
Nuages épars 10000 ft
Point de rosée 61 ° F
Humidité 87%
Précipitations 0.05 pouce
Profondeur de la couche neigeuse Non disponible.
UV 3.4 sur 12
Pollen 8.00 sur 12
Qualité de l'air Non disponible.
Flu Activity Non disponible.
METAR KASD 011553Z AUTO 17011KT 10SM FEW008 SCT065 SCT100 18/16 A3002 RMK AO2 SLP166 T01830161

More Conditions Fewer Conditions

Pression 30.02 pouce
Visibilité 10.0 Miles terrestres
Nuages Peu 800 ft
Nuages épars 6500 ft
Nuages épars 10000 ft
Point de rosée 61 ° F
Humidité 87%
Précipitations 0.05 pouce
Profondeur de la couche neigeuse Non disponible.
UV 3.4 sur 12
Pollen 8.00 sur 12
Qualité de l'air Non disponible.
Flu Activity Non disponible.
METAR KASD 011553Z AUTO 17011KT 10SM FEW008 SCT065 SCT100 18/16 A3002 RMK AO2 SLP166 T01830161

More Conditions Fewer Conditions

10-Day Weather Forecast

Almanac

Astronomie

Feb. 01, 2015 Lever Coucher
Temps réel
Crépuscule civil
Crépuscule nautique
Crépuscule astronomique
Lune
Durée de lumière visible
Longueur du jour
Tomorrow will be .
, % of the Moon is Illuminated

Extrêmes aujourd'hui

State Highs State Lows

Community

WunderPhotos

Upload Photos

1,792,362 Photos téléchargées !

WunderBlogs® & News

Nearby

Qualité de l'air

  Qualité de l'air Indice de la qualité de l'air Polluant
Not available.

Épaisseur de neige

Station Depth Altitude

Activité sismique

Ville Distance Mag. Time & Date
Minimum magnitude displayed is 2.5.

Températures des eaux côtières

Lieu Température

Stations météo à proximité